createdAt,value
2022-10-08T00:01:31.473Z,99.90
2022-10-08T00:04:00.041Z,99.90
2022-10-08T00:06:31.056Z,99.90
2022-10-08T00:09:02.900Z,99.90
2022-10-08T00:11:34.160Z,99.90
2022-10-08T00:14:03.317Z,99.90
2022-10-08T00:16:33.639Z,99.90
2022-10-08T00:19:04.861Z,99.90
2022-10-08T00:21:34.722Z,99.90
2022-10-08T00:24:05.857Z,99.90
2022-10-08T00:26:39.784Z,99.90
2022-10-08T00:29:10.402Z,99.90
2022-10-08T00:31:40.547Z,99.90
2022-10-08T00:34:10.627Z,99.90
2022-10-08T00:36:40.294Z,99.90
2022-10-08T00:39:13.447Z,99.90
2022-10-08T00:41:42.443Z,99.90
2022-10-08T00:44:51.485Z,99.90
2022-10-08T00:47:25.841Z,99.90
2022-10-08T00:49:57.146Z,99.90
2022-10-08T00:52:28.115Z,99.90
2022-10-08T00:54:58.267Z,99.90
2022-10-08T00:57:28.836Z,99.90
2022-10-08T00:59:57.563Z,99.90
2022-10-08T01:02:25.968Z,99.90
2022-10-08T01:04:54.300Z,99.90
2022-10-08T01:07:27.443Z,99.90
2022-10-08T01:10:02.751Z,99.90
2022-10-08T01:12:45.754Z,99.90
2022-10-08T01:15:24.029Z,99.90
2022-10-08T01:18:01.241Z,99.90
2022-10-08T01:20:35.756Z,99.90
2022-10-08T01:23:25.332Z,99.90
2022-10-08T01:26:03.719Z,99.90
2022-10-08T01:28:38.819Z,99.90
2022-10-08T01:31:10.115Z,99.90
2022-10-08T01:33:44.044Z,99.90
2022-10-08T01:36:13.675Z,99.90
2022-10-08T01:38:47.623Z,99.90
2022-10-08T01:41:18.501Z,99.90
2022-10-08T01:43:52.611Z,99.90
2022-10-08T01:46:24.697Z,99.90
2022-10-08T01:48:57.643Z,99.90
2022-10-08T01:51:32.940Z,99.90
2022-10-08T01:54:04.417Z,99.90
2022-10-08T01:56:35.424Z,99.90
2022-10-08T01:59:11.526Z,99.90
2022-10-08T02:02:00.933Z,99.90
2022-10-08T02:04:35.056Z,99.90
2022-10-08T02:07:07.525Z,99.90
2022-10-08T02:09:37.753Z,99.90
2022-10-08T02:12:06.780Z,99.90
2022-10-08T02:14:38.007Z,99.90
2022-10-08T02:17:21.602Z,99.90
2022-10-08T02:19:56.048Z,99.90
2022-10-08T02:22:28.835Z,99.90
2022-10-08T02:25:02.131Z,99.90
2022-10-08T02:27:42.024Z,99.90
2022-10-08T02:30:14.129Z,99.90
2022-10-08T02:32:51.275Z,99.90
2022-10-08T02:35:25.413Z,99.90
2022-10-08T02:37:58.799Z,99.90
2022-10-08T02:40:29.142Z,99.90
2022-10-08T02:43:02.484Z,99.90
2022-10-08T02:45:38.594Z,99.90
2022-10-08T02:48:11.898Z,99.90
2022-10-08T02:50:44.050Z,99.90
2022-10-08T02:53:14.719Z,99.90
2022-10-08T02:55:50.226Z,99.90
2022-10-08T02:58:18.806Z,99.90
2022-10-08T03:00:54.041Z,99.90
2022-10-08T03:03:28.936Z,99.90
2022-10-08T03:05:58.188Z,99.90
2022-10-08T03:08:27.260Z,99.90
2022-10-08T03:10:56.209Z,99.90
2022-10-08T03:13:25.617Z,99.90
2022-10-08T03:15:56.197Z,99.90
2022-10-08T03:18:26.304Z,99.90
2022-10-08T03:20:56.208Z,99.90
2022-10-08T03:23:25.733Z,99.90
2022-10-08T03:25:54.457Z,99.90
2022-10-08T03:28:22.765Z,99.90
2022-10-08T03:30:51.172Z,99.90
2022-10-08T03:33:20.823Z,99.90
2022-10-08T03:35:49.157Z,99.90
2022-10-08T03:38:17.582Z,99.90
2022-10-08T03:40:55.516Z,99.90
2022-10-08T03:43:24.196Z,99.90
2022-10-08T03:45:53.697Z,99.90
2022-10-08T03:48:23.995Z,99.90
2022-10-08T03:50:53.725Z,99.90
2022-10-08T03:53:22.500Z,99.90
2022-10-08T03:55:51.454Z,99.90
2022-10-08T03:58:19.731Z,99.90
2022-10-08T04:00:58.305Z,99.90
2022-10-08T04:03:29.084Z,99.90
2022-10-08T04:05:57.666Z,99.90
2022-10-08T04:08:26.823Z,99.90
2022-10-08T04:10:55.359Z,99.90
2022-10-08T04:13:23.908Z,99.90
2022-10-08T04:15:52.161Z,99.90
2022-10-08T04:18:20.854Z,99.90
2022-10-08T04:20:50.719Z,99.90
2022-10-08T04:23:18.979Z,99.90
2022-10-08T04:25:51.860Z,99.90
2022-10-08T04:28:20.666Z,99.90
2022-10-08T04:30:57.351Z,99.90
2022-10-08T04:33:26.285Z,99.90
2022-10-08T04:36:00.099Z,99.90
2022-10-08T04:38:29.537Z,99.90
2022-10-08T04:41:05.419Z,99.90
2022-10-08T04:43:33.932Z,99.90
2022-10-08T04:46:02.313Z,99.90
2022-10-08T04:48:30.991Z,99.90
2022-10-08T04:51:08.023Z,99.90
2022-10-08T04:53:38.892Z,99.90
2022-10-08T04:56:13.356Z,99.90
2022-10-08T04:58:42.191Z,99.90
2022-10-08T05:01:12.200Z,99.90
2022-10-08T05:03:42.362Z,99.90
2022-10-08T05:06:12.735Z,99.90
2022-10-08T05:08:40.970Z,99.90
2022-10-08T05:11:10.135Z,99.90
2022-10-08T05:13:38.913Z,99.90
2022-10-08T05:16:08.457Z,99.90
2022-10-08T05:18:38.049Z,99.90
2022-10-08T05:21:07.723Z,99.90
2022-10-08T05:23:38.181Z,99.90
2022-10-08T05:26:13.804Z,99.90
2022-10-08T05:28:42.568Z,99.90
2022-10-08T05:31:11.014Z,99.90
2022-10-08T05:33:39.829Z,99.90
2022-10-08T05:36:13.756Z,99.90
2022-10-08T05:38:43.685Z,99.90
2022-10-08T05:41:14.749Z,99.90
2022-10-08T05:43:43.568Z,99.90
2022-10-08T05:46:12.491Z,99.90
2022-10-08T05:48:41.105Z,99.90
2022-10-08T05:51:11.193Z,99.90
2022-10-08T05:53:41.959Z,99.90
2022-10-08T05:56:13.413Z,99.90
2022-10-08T05:58:42.432Z,99.90
2022-10-08T06:01:14.678Z,99.90
2022-10-08T06:03:43.424Z,99.90
2022-10-08T06:06:13.002Z,99.90
2022-10-08T06:08:41.702Z,99.90
2022-10-08T06:11:11.387Z,99.90
2022-10-08T06:13:39.951Z,99.90
2022-10-08T06:16:10.284Z,99.90
2022-10-08T06:18:40.732Z,99.90
2022-10-08T06:21:11.424Z,99.90
2022-10-08T06:23:41.200Z,99.90
2022-10-08T06:26:11.769Z,99.90
2022-10-08T06:28:40.573Z,99.90
2022-10-08T06:31:09.835Z,99.90
2022-10-08T06:33:38.359Z,99.90
2022-10-08T06:36:07.727Z,99.90
2022-10-08T06:38:36.086Z,99.90
2022-10-08T06:41:04.450Z,99.90
2022-10-08T06:43:34.192Z,99.90
2022-10-08T06:46:05.847Z,99.90
2022-10-08T06:48:34.663Z,99.90
2022-10-08T06:51:05.255Z,99.90
2022-10-08T06:53:34.639Z,99.90
2022-10-08T06:56:04.917Z,99.90
2022-10-08T06:58:36.288Z,99.90
2022-10-08T07:01:06.603Z,99.90
2022-10-08T07:03:35.500Z,99.90
2022-10-08T07:06:05.376Z,99.90
2022-10-08T07:08:33.870Z,99.90
2022-10-08T07:11:06.260Z,99.90
2022-10-08T07:13:37.183Z,99.90
2022-10-08T07:16:07.754Z,99.90
2022-10-08T07:18:38.006Z,99.90
2022-10-08T07:21:07.692Z,99.90
2022-10-08T07:23:36.208Z,99.90
2022-10-08T07:26:06.878Z,99.90
2022-10-08T07:28:38.248Z,99.90
2022-10-08T07:31:07.688Z,99.90
2022-10-08T07:33:36.123Z,99.90
2022-10-08T07:36:10.053Z,99.90
2022-10-08T07:38:39.307Z,99.90
2022-10-08T07:41:08.571Z,99.90
2022-10-08T07:43:41.855Z,99.90
2022-10-08T07:46:11.940Z,99.90
2022-10-08T07:48:40.649Z,99.90
2022-10-08T07:51:10.818Z,99.90
2022-10-08T07:53:39.374Z,99.90
2022-10-08T07:56:09.579Z,99.90
2022-10-08T07:58:40.045Z,99.90
2022-10-08T08:01:12.699Z,99.90
2022-10-08T08:03:41.225Z,99.90
2022-10-08T08:06:12.587Z,99.90
2022-10-08T08:08:42.826Z,99.90
2022-10-08T08:11:13.819Z,99.90
2022-10-08T08:13:44.193Z,99.90
2022-10-08T08:16:15.016Z,99.90
2022-10-08T08:18:45.570Z,99.90
2022-10-08T08:21:15.784Z,99.90
2022-10-08T08:23:45.999Z,99.90
2022-10-08T08:26:16.351Z,99.90
2022-10-08T08:28:46.208Z,99.90
2022-10-08T08:31:17.310Z,99.90
2022-10-08T08:33:50.949Z,99.90
2022-10-08T08:36:20.268Z,99.90
2022-10-08T08:38:48.696Z,99.90
2022-10-08T08:41:30.955Z,99.90
2022-10-08T08:44:02.515Z,99.90
2022-10-08T08:46:36.436Z,99.90
2022-10-08T08:49:16.236Z,99.90
2022-10-08T08:51:46.886Z,99.90
2022-10-08T08:54:15.552Z,99.90
2022-10-08T08:56:45.625Z,99.90
2022-10-08T08:59:27.858Z,99.90
2022-10-08T09:02:00.221Z,99.90
2022-10-08T09:04:44.315Z,99.90
2022-10-08T09:07:37.482Z,99.90
2022-10-08T09:10:09.486Z,99.90
2022-10-08T09:12:39.869Z,99.90
2022-10-08T09:15:18.718Z,99.90
2022-10-08T09:17:51.695Z,99.90
2022-10-08T09:20:22.783Z,99.90
2022-10-08T09:22:52.388Z,99.90
2022-10-08T09:25:23.512Z,99.90
2022-10-08T09:27:54.519Z,99.90
2022-10-08T09:30:36.488Z,99.90
2022-10-08T09:33:18.531Z,99.90
2022-10-08T09:35:49.305Z,99.90
2022-10-08T09:38:23.178Z,99.90
2022-10-08T09:41:02.917Z,99.90
2022-10-08T09:43:31.987Z,99.90
2022-10-08T09:46:05.699Z,99.90
2022-10-08T09:48:34.137Z,99.90
2022-10-08T09:51:06.017Z,99.90
2022-10-08T09:53:41.302Z,99.90
2022-10-08T09:56:11.071Z,99.90
2022-10-08T09:58:49.908Z,99.90
2022-10-08T10:01:20.382Z,99.90
2022-10-08T10:03:55.005Z,99.90
2022-10-08T10:06:29.049Z,99.90
2022-10-08T10:09:03.864Z,99.90
2022-10-08T10:11:38.420Z,99.90
2022-10-08T10:14:15.770Z,99.90
2022-10-08T10:16:47.789Z,99.90
2022-10-08T10:19:21.538Z,99.90
2022-10-08T10:21:57.869Z,99.90
2022-10-08T10:24:39.371Z,99.90
2022-10-08T10:27:13.709Z,99.90
2022-10-08T10:29:57.570Z,99.90
2022-10-08T10:32:32.332Z,99.90
2022-10-08T10:35:07.051Z,99.90
2022-10-08T10:37:44.956Z,99.90
2022-10-08T10:40:32.502Z,99.90
2022-10-08T10:43:18.517Z,99.90
2022-10-08T10:45:52.779Z,99.90
2022-10-08T10:48:22.671Z,99.90
2022-10-08T10:51:22.563Z,99.90
2022-10-08T10:54:04.822Z,99.50
2022-10-08T10:56:38.323Z,97.80
2022-10-08T10:59:20.196Z,99.30
2022-10-08T11:01:55.070Z,99.90
2022-10-08T11:04:39.270Z,99.90
2022-10-08T11:07:25.098Z,98.30
2022-10-08T11:09:59.370Z,96.00
2022-10-08T11:12:35.487Z,91.90
2022-10-08T11:15:15.195Z,90.00
2022-10-08T11:17:56.287Z,88.50
2022-10-08T11:20:45.229Z,90.40
2022-10-08T11:23:24.957Z,90.40
2022-10-08T11:28:53.095Z,84.20
2022-10-08T11:31:32.250Z,84.50
2022-10-08T11:34:01.308Z,84.80
2022-10-08T11:36:45.078Z,84.70
2022-10-08T11:39:19.341Z,80.30
2022-10-08T11:41:53.510Z,79.90
2022-10-08T11:44:22.639Z,78.40
2022-10-08T11:46:51.328Z,77.10
2022-10-08T11:49:48.209Z,73.80
2022-10-08T11:52:17.925Z,68.20
2022-10-08T11:54:55.632Z,71.90
2022-10-08T12:00:47.199Z,67.20
2022-10-08T12:03:24.771Z,66.50
2022-10-08T12:05:55.186Z,65.50
2022-10-08T12:08:51.726Z,63.40
2022-10-08T12:11:52.037Z,61.80
2022-10-08T12:14:34.258Z,57.90
2022-10-08T12:17:09.907Z,57.50
2022-10-08T12:20:20.064Z,58.30
2022-10-08T12:23:06.777Z,55.50
2022-10-08T12:25:44.296Z,54.20
2022-10-08T12:28:47.757Z,55.90
2022-10-08T12:31:31.693Z,51.40
2022-10-08T12:34:03.169Z,55.00
2022-10-08T12:36:41.205Z,54.80
2022-10-08T12:39:17.631Z,51.50
2022-10-08T12:41:58.548Z,51.50
2022-10-08T12:44:41.815Z,48.50
2022-10-08T12:47:23.863Z,49.10
2022-10-08T12:49:58.340Z,50.60
2022-10-08T12:52:27.910Z,50.20
2022-10-08T12:54:58.792Z,51.00
2022-10-08T12:57:33.864Z,50.20
2022-10-08T13:00:08.308Z,49.20
2022-10-08T13:02:39.658Z,48.00
2022-10-08T13:05:25.569Z,50.20
2022-10-08T13:07:54.542Z,46.90
2022-10-08T13:10:24.840Z,49.00
2022-10-08T13:13:06.081Z,48.20
2022-10-08T13:15:35.654Z,46.20
2022-10-08T13:18:14.758Z,45.90
2022-10-08T13:20:57.892Z,45.60
2022-10-08T13:23:27.145Z,45.80
2022-10-08T13:25:55.416Z,47.50
2022-10-08T13:28:48.285Z,47.50
2022-10-08T13:31:24.273Z,47.50
2022-10-08T13:33:52.936Z,47.70
2022-10-08T13:36:23.641Z,49.10
2022-10-08T13:38:52.073Z,49.30
2022-10-08T13:41:24.175Z,48.70
2022-10-08T13:43:54.233Z,47.10
2022-10-08T13:46:22.597Z,45.90
2022-10-08T13:48:51.212Z,45.80
2022-10-08T13:51:19.485Z,45.20
2022-10-08T13:53:47.792Z,45.20
2022-10-08T13:56:18.146Z,44.70
2022-10-08T13:58:46.428Z,45.00
2022-10-08T14:01:16.420Z,44.40
2022-10-08T14:03:44.712Z,44.20
2022-10-08T14:06:13.185Z,45.30
2022-10-08T14:08:41.476Z,45.50
2022-10-08T14:11:10.066Z,45.20
2022-10-08T14:13:38.306Z,44.80
2022-10-08T14:16:07.046Z,44.70
2022-10-08T14:18:36.680Z,44.80
2022-10-08T14:21:05.903Z,44.00
2022-10-08T14:23:34.408Z,43.50
2022-10-08T14:26:02.688Z,43.60
2022-10-08T14:28:31.580Z,43.50
2022-10-08T14:30:59.925Z,44.70
2022-10-08T14:33:28.378Z,44.90
2022-10-08T14:35:57.993Z,45.00
2022-10-08T14:38:26.191Z,44.70
2022-10-08T14:40:54.456Z,44.70
2022-10-08T14:43:26.909Z,45.80
2022-10-08T14:45:56.093Z,46.00
2022-10-08T14:48:24.376Z,44.20
2022-10-08T14:50:52.646Z,43.70
2022-10-08T14:53:22.284Z,44.70
2022-10-08T14:56:11.136Z,44.10
2022-10-08T14:58:38.850Z,44.60
2022-10-08T15:01:07.606Z,44.50
2022-10-08T15:03:35.981Z,44.80
2022-10-08T15:06:04.430Z,45.00
2022-10-08T15:08:35.165Z,45.00
2022-10-08T15:11:04.462Z,44.30
2022-10-08T15:13:34.731Z,43.90
2022-10-08T15:16:03.142Z,43.70
2022-10-08T15:18:32.574Z,44.40
2022-10-08T15:21:02.514Z,46.10
2022-10-08T15:23:33.320Z,47.40
2022-10-08T15:26:05.358Z,49.50
2022-10-08T15:28:36.891Z,51.20
2022-10-08T15:31:07.997Z,51.80
2022-10-08T15:33:39.316Z,51.80
2022-10-08T15:36:18.857Z,50.80
2022-10-08T15:38:47.478Z,50.20
2022-10-08T15:41:18.310Z,50.00
2022-10-08T15:43:46.860Z,49.70
2022-10-08T15:46:18.224Z,49.70
2022-10-08T15:48:52.851Z,49.50
2022-10-08T15:51:21.260Z,50.20
2022-10-08T15:53:49.849Z,50.40
2022-10-08T15:56:19.541Z,50.70
2022-10-08T15:58:51.723Z,50.80
2022-10-08T16:01:23.151Z,50.90
2022-10-08T16:03:53.734Z,50.90
2022-10-08T16:06:24.174Z,51.00
2022-10-08T16:08:52.875Z,50.80
2022-10-08T16:11:24.295Z,51.30
2022-10-08T16:13:54.199Z,52.10
2022-10-08T16:16:22.917Z,52.00
2022-10-08T16:18:55.970Z,52.80
2022-10-08T16:21:24.685Z,53.80
2022-10-08T16:23:53.326Z,55.00
2022-10-08T16:26:23.257Z,56.20
2022-10-08T16:28:55.100Z,57.90
2022-10-08T16:31:24.074Z,58.50
2022-10-08T16:33:56.171Z,59.70
2022-10-08T16:36:25.259Z,61.00
2022-10-08T16:38:54.114Z,62.10
2022-10-08T16:41:26.330Z,63.40
2022-10-08T16:43:56.019Z,64.10
2022-10-08T16:46:26.314Z,64.70
2022-10-08T16:48:56.232Z,66.20
2022-10-08T16:51:26.849Z,67.00
2022-10-08T16:53:57.833Z,67.70
2022-10-08T16:56:29.292Z,68.20
2022-10-08T16:58:58.855Z,69.10
2022-10-08T17:01:27.935Z,70.30
2022-10-08T17:03:56.536Z,71.50
2022-10-08T17:06:26.456Z,72.30
2022-10-08T17:08:55.577Z,73.40
2022-10-08T17:11:23.882Z,74.50
2022-10-08T17:13:55.640Z,76.10
2022-10-08T17:16:26.196Z,77.70
2022-10-08T17:18:56.357Z,78.90
2022-10-08T17:21:25.089Z,80.20
2022-10-08T17:23:53.682Z,81.60
2022-10-08T17:26:24.426Z,82.90
2022-10-08T17:28:55.074Z,85.00
2022-10-08T17:31:26.131Z,89.20
2022-10-08T17:33:54.990Z,90.90
2022-10-08T17:36:26.020Z,93.50
2022-10-08T17:38:55.966Z,95.30
2022-10-08T17:41:26.355Z,96.40
2022-10-08T17:43:57.329Z,97.70
2022-10-08T17:46:27.254Z,99.70
2022-10-08T17:48:56.179Z,99.90
2022-10-08T17:51:28.030Z,99.90
2022-10-08T17:53:58.632Z,99.90
2022-10-08T17:56:27.675Z,99.90
2022-10-08T17:58:57.630Z,99.90
2022-10-08T18:01:27.428Z,99.90
2022-10-08T18:03:57.451Z,99.90
2022-10-08T18:06:26.773Z,99.90
2022-10-08T18:08:56.026Z,99.90
2022-10-08T18:11:25.252Z,99.90
2022-10-08T18:13:54.290Z,99.90
2022-10-08T18:16:25.296Z,99.90
2022-10-08T18:18:53.637Z,99.90
2022-10-08T18:21:22.151Z,99.90
2022-10-08T18:23:50.840Z,99.90
2022-10-08T18:26:21.043Z,99.90
2022-10-08T18:28:51.564Z,99.90
2022-10-08T18:31:21.611Z,99.90
2022-10-08T18:33:55.502Z,99.90
2022-10-08T18:36:25.965Z,99.90
2022-10-08T18:38:56.761Z,99.90
2022-10-08T18:41:27.363Z,99.90
2022-10-08T18:43:59.439Z,99.90
2022-10-08T18:46:29.053Z,99.90
2022-10-08T18:48:59.512Z,99.90
2022-10-08T18:51:30.015Z,99.90
2022-10-08T18:53:59.548Z,99.90
2022-10-08T18:56:30.424Z,99.90
2022-10-08T18:58:59.816Z,99.90
2022-10-08T19:01:31.152Z,99.90
2022-10-08T19:04:03.012Z,99.90
2022-10-08T19:06:37.319Z,99.90
2022-10-08T19:09:06.966Z,99.90
2022-10-08T19:11:44.117Z,99.90
2022-10-08T19:14:15.472Z,99.90
2022-10-08T19:16:45.225Z,99.90
2022-10-08T19:19:17.123Z,99.90
2022-10-08T19:21:46.147Z,99.90
2022-10-08T19:24:16.443Z,99.90
2022-10-08T19:26:45.779Z,99.90
2022-10-08T19:29:17.294Z,99.90
2022-10-08T19:31:48.725Z,99.90
2022-10-08T19:34:20.667Z,99.90
2022-10-08T19:36:50.008Z,99.90
2022-10-08T19:39:20.793Z,99.90
2022-10-08T19:41:49.760Z,99.90
2022-10-08T19:44:18.721Z,99.90
2022-10-08T19:46:47.753Z,99.90
2022-10-08T19:49:16.487Z,99.90
2022-10-08T19:51:46.321Z,99.90
2022-10-08T19:54:15.723Z,99.90
2022-10-08T19:56:44.476Z,99.90
2022-10-08T19:59:13.722Z,99.90
2022-10-08T20:01:42.807Z,99.90
2022-10-08T20:04:13.688Z,99.90
2022-10-08T20:06:43.612Z,99.90
2022-10-08T20:09:14.461Z,99.90
2022-10-08T20:11:44.439Z,99.90
2022-10-08T20:14:13.415Z,99.90
2022-10-08T20:16:43.282Z,99.90
2022-10-08T20:19:16.957Z,99.90
2022-10-08T20:21:45.728Z,99.90
2022-10-08T20:24:16.016Z,99.90
2022-10-08T20:26:45.282Z,99.90
2022-10-08T20:29:16.460Z,99.90
2022-10-08T20:31:46.363Z,99.90
2022-10-08T20:34:17.691Z,99.90
2022-10-08T20:36:47.032Z,99.90
2022-10-08T20:39:18.728Z,99.90
2022-10-08T20:41:48.814Z,99.90
2022-10-08T20:44:18.034Z,99.90
2022-10-08T20:46:46.737Z,99.90
2022-10-08T20:49:15.727Z,99.90
2022-10-08T20:51:45.767Z,99.90
2022-10-08T20:54:16.994Z,99.90
2022-10-08T20:56:46.103Z,99.90
2022-10-08T20:59:17.265Z,99.90
2022-10-08T21:01:46.136Z,99.90
2022-10-08T21:04:14.777Z,99.90
2022-10-08T21:06:44.990Z,99.90
2022-10-08T21:09:14.160Z,99.90
2022-10-08T21:11:45.894Z,99.90
2022-10-08T21:14:17.603Z,99.90
2022-10-08T21:16:46.653Z,99.90
2022-10-08T21:19:18.819Z,99.90
2022-10-08T21:21:48.281Z,99.90
2022-10-08T21:24:16.917Z,99.90
2022-10-08T21:26:46.727Z,99.90
2022-10-08T21:29:15.593Z,99.90
2022-10-08T21:31:44.163Z,99.90
2022-10-08T21:34:13.506Z,99.90
2022-10-08T21:36:42.954Z,99.90
2022-10-08T21:39:15.828Z,99.90
2022-10-08T21:41:44.510Z,99.90
2022-10-08T21:44:14.798Z,99.90
2022-10-08T21:46:44.766Z,99.90
2022-10-08T21:49:15.297Z,99.90
2022-10-08T21:51:44.202Z,99.90
2022-10-08T21:54:13.142Z,99.90
2022-10-08T21:56:42.716Z,99.90
2022-10-08T21:59:16.230Z,99.90
2022-10-08T22:01:45.903Z,99.90
2022-10-08T22:04:16.472Z,99.90
2022-10-08T22:06:46.173Z,99.90
2022-10-08T22:09:19.781Z,99.90
2022-10-08T22:11:49.082Z,99.90
2022-10-08T22:14:19.155Z,99.90
2022-10-08T22:16:47.926Z,99.90
2022-10-08T22:19:16.959Z,99.90
2022-10-08T22:21:45.655Z,99.90
2022-10-08T22:24:14.522Z,99.90
2022-10-08T22:26:45.079Z,99.90
2022-10-08T22:29:13.472Z,99.90
2022-10-08T22:31:43.204Z,99.90
2022-10-08T22:34:11.485Z,99.90
2022-10-08T22:36:41.323Z,99.90
2022-10-08T22:39:10.344Z,99.90
2022-10-08T22:41:38.580Z,99.90
2022-10-08T22:44:07.115Z,99.90
2022-10-08T22:46:38.213Z,99.90
2022-10-08T22:49:10.161Z,99.90
2022-10-08T22:51:39.260Z,99.90
2022-10-08T22:54:07.938Z,99.90
2022-10-08T22:56:36.261Z,99.90
2022-10-08T22:59:05.103Z,99.90
2022-10-08T23:01:33.478Z,99.90
2022-10-08T23:04:01.821Z,99.90
2022-10-08T23:06:33.271Z,99.90
2022-10-08T23:09:03.072Z,99.90
2022-10-08T23:11:32.719Z,99.90
2022-10-08T23:14:01.791Z,99.90
2022-10-08T23:16:32.350Z,99.90
2022-10-08T23:19:02.608Z,99.90
2022-10-08T23:21:32.986Z,99.90
2022-10-08T23:24:01.446Z,99.90
2022-10-08T23:26:31.405Z,99.90
2022-10-08T23:29:01.202Z,99.90
2022-10-08T23:31:31.266Z,99.90
2022-10-08T23:34:00.518Z,99.90
2022-10-08T23:36:32.783Z,99.90
2022-10-08T23:39:01.811Z,99.90
2022-10-08T23:41:30.297Z,99.90
2022-10-08T23:43:59.095Z,99.90
2022-10-08T23:46:29.580Z,99.90
2022-10-08T23:48:59.434Z,99.90
2022-10-08T23:51:29.496Z,99.90
2022-10-08T23:54:01.052Z,99.90
2022-10-08T23:56:30.159Z,99.90
2022-10-08T23:58:58.464Z,99.90
